Terminal Aerodrome Forecast
Issued by NWS

Home | Current Version | Previous Version | Text Only | Print | Product List | Glossary On
Versions: 1 2 3 4 5 6 7 8 9 10 11 12 13 14 15 16 17 18 19 20
480
FTUS44 KMAF 081120
TAFFST
TAF
KFST 081120Z 0812/0912 02010G20KT P6SM SCT008 OVC011
      TEMPO 0812/0816 4SM -SN BR OVC008
     FM081800 04009G19KT P6SM OVC014
     FM082200 11006KT P6SM OVC035=

USA.gov is the U.S. government's official web portal to all federal, state and local government web resources and services.